sensor_id;sensor_type;location;lat;lon;timestamp;P1;durP1;ratioP1;P2;durP2;ratioP2
11927;SDS011;6023;47.070;15.126;2023-03-01T00:01:29;19.27;;;14.73;;
11927;SDS011;6023;47.070;15.126;2023-03-01T00:03:58;18.83;;;14.83;;
11927;SDS011;6023;47.070;15.126;2023-03-01T00:06:27;19.13;;;15.27;;
11927;SDS011;6023;47.070;15.126;2023-03-01T00:08:57;18.80;;;15.00;;
11927;SDS011;6023;47.070;15.126;2023-03-01T00:11:27;18.30;;;14.37;;
11927;SDS011;6023;47.070;15.126;2023-03-01T00:13:56;19.03;;;14.93;;
11927;SDS011;6023;47.070;15.126;2023-03-01T00:16:28;18.80;;;15.60;;
11927;SDS011;6023;47.070;15.126;2023-03-01T00:18:58;22.33;;;17.07;;
11927;SDS011;6023;47.070;15.126;2023-03-01T00:21:26;19.77;;;16.10;;
11927;SDS011;6023;47.070;15.126;2023-03-01T00:23:55;20.90;;;16.30;;
11927;SDS011;6023;47.070;15.126;2023-03-01T00:26:26;21.43;;;16.30;;
11927;SDS011;6023;47.070;15.126;2023-03-01T00:28:56;20.10;;;16.13;;
11927;SDS011;6023;47.070;15.126;2023-03-01T00:31:26;19.77;;;15.73;;
11927;SDS011;6023;47.070;15.126;2023-03-01T00:33:58;18.57;;;15.50;;
11927;SDS011;6023;47.070;15.126;2023-03-01T00:36:30;20.40;;;16.30;;
11927;SDS011;6023;47.070;15.126;2023-03-01T00:39:01;20.10;;;15.80;;
11927;SDS011;6023;47.070;15.126;2023-03-01T00:41:30;20.13;;;16.30;;
11927;SDS011;6023;47.070;15.126;2023-03-01T00:44:01;20.10;;;16.17;;
11927;SDS011;6023;47.070;15.126;2023-03-01T00:46:29;18.93;;;15.33;;
11927;SDS011;6023;47.070;15.126;2023-03-01T00:48:58;17.23;;;14.47;;
11927;SDS011;6023;47.070;15.126;2023-03-01T00:51:29;18.40;;;14.73;;
11927;SDS011;6023;47.070;15.126;2023-03-01T00:53:58;19.47;;;15.60;;
11927;SDS011;6023;47.070;15.126;2023-03-01T00:56:29;19.80;;;15.80;;
11927;SDS011;6023;47.070;15.126;2023-03-01T00:58:58;18.73;;;15.07;;
11927;SDS011;6023;47.070;15.126;2023-03-01T01:01:27;19.43;;;15.40;;
11927;SDS011;6023;47.070;15.126;2023-03-01T01:03:58;18.67;;;15.23;;
11927;SDS011;6023;47.070;15.126;2023-03-01T01:06:28;16.80;;;13.37;;
11927;SDS011;6023;47.070;15.126;2023-03-01T01:08:58;18.53;;;14.87;;
11927;SDS011;6023;47.070;15.126;2023-03-01T01:11:29;16.63;;;14.37;;
11927;SDS011;6023;47.070;15.126;2023-03-01T01:13:58;19.20;;;14.17;;
11927;SDS011;6023;47.070;15.126;2023-03-01T01:16:27;17.57;;;14.10;;
11927;SDS011;6023;47.070;15.126;2023-03-01T01:18:57;16.67;;;13.57;;
11927;SDS011;6023;47.070;15.126;2023-03-01T01:21:26;18.47;;;13.73;;
11927;SDS011;6023;47.070;15.126;2023-03-01T01:23:54;17.93;;;14.87;;
11927;SDS011;6023;47.070;15.126;2023-03-01T01:26:24;19.90;;;16.00;;
11927;SDS011;6023;47.070;15.126;2023-03-01T01:28:56;19.20;;;15.77;;
11927;SDS011;6023;47.070;15.126;2023-03-01T01:31:26;20.03;;;15.33;;
11927;SDS011;6023;47.070;15.126;2023-03-01T01:33:56;21.17;;;16.73;;
11927;SDS011;6023;47.070;15.126;2023-03-01T01:36:25;20.63;;;16.03;;
11927;SDS011;6023;47.070;15.126;2023-03-01T01:38:54;19.93;;;15.60;;
11927;SDS011;6023;47.070;15.126;2023-03-01T01:41:23;18.73;;;15.13;;
11927;SDS011;6023;47.070;15.126;2023-03-01T01:46:41;16.97;;;13.37;;
11927;SDS011;6023;47.070;15.126;2023-03-01T01:49:16;18.47;;;14.23;;
11927;SDS011;6023;47.070;15.126;2023-03-01T01:51:47;17.60;;;13.80;;
11927;SDS011;6023;47.070;15.126;2023-03-01T01:54:18;16.20;;;13.73;;
11927;SDS011;6023;47.070;15.126;2023-03-01T01:56:49;17.10;;;13.60;;
11927;SDS011;6023;47.070;15.126;2023-03-01T01:59:21;16.70;;;13.60;;
11927;SDS011;6023;47.070;15.126;2023-03-01T02:01:51;18.03;;;14.73;;
11927;SDS011;6023;47.070;15.126;2023-03-01T02:04:20;17.93;;;14.47;;
11927;SDS011;6023;47.070;15.126;2023-03-01T02:06:51;16.57;;;13.90;;
11927;SDS011;6023;47.070;15.126;2023-03-01T02:09:22;18.40;;;14.13;;
11927;SDS011;6023;47.070;15.126;2023-03-01T02:11:52;18.07;;;13.60;;
11927;SDS011;6023;47.070;15.126;2023-03-01T02:14:23;16.03;;;13.13;;
11927;SDS011;6023;47.070;15.126;2023-03-01T02:16:51;15.63;;;13.37;;
11927;SDS011;6023;47.070;15.126;2023-03-01T02:19:22;17.03;;;14.17;;
11927;SDS011;6023;47.070;15.126;2023-03-01T02:22:00;16.87;;;13.40;;
11927;SDS011;6023;47.070;15.126;2023-03-01T02:24:35;18.83;;;14.03;;
11927;SDS011;6023;47.070;15.126;2023-03-01T02:27:09;17.70;;;14.70;;
11927;SDS011;6023;47.070;15.126;2023-03-01T02:29:39;16.53;;;14.17;;
11927;SDS011;6023;47.070;15.126;2023-03-01T02:32:10;16.57;;;13.50;;
11927;SDS011;6023;47.070;15.126;2023-03-01T02:34:38;17.30;;;14.10;;
11927;SDS011;6023;47.070;15.126;2023-03-01T02:37:08;18.53;;;13.77;;
11927;SDS011;6023;47.070;15.126;2023-03-01T02:39:40;15.73;;;13.17;;
11927;SDS011;6023;47.070;15.126;2023-03-01T02:42:13;17.10;;;13.23;;
11927;SDS011;6023;47.070;15.126;2023-03-01T02:44:45;17.23;;;13.43;;
11927;SDS011;6023;47.070;15.126;2023-03-01T02:47:13;15.83;;;13.23;;
11927;SDS011;6023;47.070;15.126;2023-03-01T02:49:42;16.13;;;12.87;;
11927;SDS011;6023;47.070;15.126;2023-03-01T02:52:20;17.63;;;13.27;;
11927;SDS011;6023;47.070;15.126;2023-03-01T02:54:53;16.40;;;12.67;;
11927;SDS011;6023;47.070;15.126;2023-03-01T02:57:26;15.50;;;13.07;;
11927;SDS011;6023;47.070;15.126;2023-03-01T02:59:59;16.27;;;13.07;;
11927;SDS011;6023;47.070;15.126;2023-03-01T03:02:34;16.43;;;13.23;;
11927;SDS011;6023;47.070;15.126;2023-03-01T03:05:04;22.60;;;16.80;;
11927;SDS011;6023;47.070;15.126;2023-03-01T03:07:35;80.23;;;46.30;;
11927;SDS011;6023;47.070;15.126;2023-03-01T03:10:06;81.40;;;46.17;;
11927;SDS011;6023;47.070;15.126;2023-03-01T03:12:35;44.40;;;29.73;;
11927;SDS011;6023;47.070;15.126;2023-03-01T03:15:07;32.30;;;23.07;;
11927;SDS011;6023;47.070;15.126;2023-03-01T03:17:40;34.43;;;26.00;;
11927;SDS011;6023;47.070;15.126;2023-03-01T03:20:12;22.70;;;18.33;;
11927;SDS011;6023;47.070;15.126;2023-03-01T03:22:46;17.97;;;15.10;;
11927;SDS011;6023;47.070;15.126;2023-03-01T03:25:15;17.90;;;14.47;;
11927;SDS011;6023;47.070;15.126;2023-03-01T03:27:44;18.47;;;14.80;;
11927;SDS011;6023;47.070;15.126;2023-03-01T03:30:15;17.53;;;14.00;;
11927;SDS011;6023;47.070;15.126;2023-03-01T03:32:46;18.83;;;15.00;;
11927;SDS011;6023;47.070;15.126;2023-03-01T03:35:19;18.63;;;14.47;;
11927;SDS011;6023;47.070;15.126;2023-03-01T03:37:48;18.87;;;14.77;;
11927;SDS011;6023;47.070;15.126;2023-03-01T03:40:29;18.63;;;14.80;;
11927;SDS011;6023;47.070;15.126;2023-03-01T03:42:59;19.43;;;14.47;;
11927;SDS011;6023;47.070;15.126;2023-03-01T03:45:29;17.93;;;13.70;;
11927;SDS011;6023;47.070;15.126;2023-03-01T03:48:00;15.73;;;13.40;;
11927;SDS011;6023;47.070;15.126;2023-03-01T03:50:29;18.13;;;14.60;;
11927;SDS011;6023;47.070;15.126;2023-03-01T03:52:59;18.60;;;14.53;;
11927;SDS011;6023;47.070;15.126;2023-03-01T03:55:28;17.53;;;14.30;;
11927;SDS011;6023;47.070;15.126;2023-03-01T03:57:57;17.97;;;14.30;;
11927;SDS011;6023;47.070;15.126;2023-03-01T04:00:30;18.63;;;15.33;;
11927;SDS011;6023;47.070;15.126;2023-03-01T04:02:59;18.37;;;13.93;;
11927;SDS011;6023;47.070;15.126;2023-03-01T04:05:27;20.13;;;14.33;;
11927;SDS011;6023;47.070;15.126;2023-03-01T04:07:56;17.17;;;14.13;;
11927;SDS011;6023;47.070;15.126;2023-03-01T04:10:34;17.97;;;14.13;;
11927;SDS011;6023;47.070;15.126;2023-03-01T04:13:05;17.67;;;13.67;;
11927;SDS011;6023;47.070;15.126;2023-03-01T04:15:35;17.83;;;14.57;;
11927;SDS011;6023;47.070;15.126;2023-03-01T04:18:04;21.43;;;17.63;;
11927;SDS011;6023;47.070;15.126;2023-03-01T04:20:33;17.70;;;14.83;;
11927;SDS011;6023;47.070;15.126;2023-03-01T04:23:03;17.57;;;13.90;;
11927;SDS011;6023;47.070;15.126;2023-03-01T04:25:40;15.80;;;13.40;;
11927;SDS011;6023;47.070;15.126;2023-03-01T04:28:10;17.40;;;14.00;;
11927;SDS011;6023;47.070;15.126;2023-03-01T04:30:40;17.90;;;14.23;;
11927;SDS011;6023;47.070;15.126;2023-03-01T04:33:09;18.13;;;14.40;;
11927;SDS011;6023;47.070;15.126;2023-03-01T04:35:38;16.47;;;13.80;;
11927;SDS011;6023;47.070;15.126;2023-03-01T04:38:07;17.07;;;14.10;;
11927;SDS011;6023;47.070;15.126;2023-03-01T04:40:36;17.27;;;13.83;;
11927;SDS011;6023;47.070;15.126;2023-03-01T04:43:05;15.53;;;13.43;;
11927;SDS011;6023;47.070;15.126;2023-03-01T04:45:33;16.47;;;14.10;;
11927;SDS011;6023;47.070;15.126;2023-03-01T04:48:04;16.40;;;13.20;;
11927;SDS011;6023;47.070;15.126;2023-03-01T04:50:33;16.30;;;13.77;;
11927;SDS011;6023;47.070;15.126;2023-03-01T04:53:02;15.87;;;13.30;;
11927;SDS011;6023;47.070;15.126;2023-03-01T04:55:30;15.57;;;13.13;;
11927;SDS011;6023;47.070;15.126;2023-03-01T04:57:59;16.93;;;13.93;;
11927;SDS011;6023;47.070;15.126;2023-03-01T05:00:28;17.13;;;14.30;;
11927;SDS011;6023;47.070;15.126;2023-03-01T05:02:57;20.83;;;14.13;;
11927;SDS011;6023;47.070;15.126;2023-03-01T05:05:29;17.10;;;14.33;;
11927;SDS011;6023;47.070;15.126;2023-03-01T05:08:00;15.23;;;13.07;;
11927;SDS011;6023;47.070;15.126;2023-03-01T05:10:30;17.97;;;13.37;;
11927;SDS011;6023;47.070;15.126;2023-03-01T05:13:00;16.50;;;14.20;;
11927;SDS011;6023;47.070;15.126;2023-03-01T05:15:29;17.43;;;14.60;;
11927;SDS011;6023;47.070;15.126;2023-03-01T05:17:59;19.03;;;14.93;;
11927;SDS011;6023;47.070;15.126;2023-03-01T05:20:30;18.30;;;14.30;;
11927;SDS011;6023;47.070;15.126;2023-03-01T05:22:59;18.73;;;16.03;;
11927;SDS011;6023;47.070;15.126;2023-03-01T05:25:32;20.77;;;16.90;;
11927;SDS011;6023;47.070;15.126;2023-03-01T05:28:07;23.17;;;18.50;;
11927;SDS011;6023;47.070;15.126;2023-03-01T05:30:38;21.50;;;18.23;;
11927;SDS011;6023;47.070;15.126;2023-03-01T05:33:08;23.93;;;18.93;;
11927;SDS011;6023;47.070;15.126;2023-03-01T05:35:42;32.80;;;25.23;;
11927;SDS011;6023;47.070;15.126;2023-03-01T05:38:11;31.87;;;25.37;;
11927;SDS011;6023;47.070;15.126;2023-03-01T05:40:41;26.53;;;22.37;;
11927;SDS011;6023;47.070;15.126;2023-03-01T05:43:10;28.73;;;21.87;;
11927;SDS011;6023;47.070;15.126;2023-03-01T05:45:40;24.17;;;19.03;;
11927;SDS011;6023;47.070;15.126;2023-03-01T05:48:10;19.73;;;17.73;;
11927;SDS011;6023;47.070;15.126;2023-03-01T05:50:39;18.97;;;15.27;;
11927;SDS011;6023;47.070;15.126;2023-03-01T05:53:11;24.17;;;18.80;;
11927;SDS011;6023;47.070;15.126;2023-03-01T05:55:41;22.00;;;19.20;;
11927;SDS011;6023;47.070;15.126;2023-03-01T05:58:11;26.73;;;20.90;;
11927;SDS011;6023;47.070;15.126;2023-03-01T06:00:42;25.13;;;19.63;;
11927;SDS011;6023;47.070;15.126;2023-03-01T06:03:11;21.63;;;16.37;;
11927;SDS011;6023;47.070;15.126;2023-03-01T06:05:42;20.93;;;16.30;;
11927;SDS011;6023;47.070;15.126;2023-03-01T06:08:12;19.53;;;16.00;;
11927;SDS011;6023;47.070;15.126;2023-03-01T06:10:41;20.37;;;15.30;;
11927;SDS011;6023;47.070;15.126;2023-03-01T06:13:09;21.33;;;15.57;;
11927;SDS011;6023;47.070;15.126;2023-03-01T06:15:38;20.33;;;15.63;;
11927;SDS011;6023;47.070;15.126;2023-03-01T06:18:06;18.70;;;14.63;;
11927;SDS011;6023;47.070;15.126;2023-03-01T06:20:36;25.17;;;18.97;;
11927;SDS011;6023;47.070;15.126;2023-03-01T06:23:06;28.40;;;22.63;;
11927;SDS011;6023;47.070;15.126;2023-03-01T06:25:36;25.47;;;20.60;;
11927;SDS011;6023;47.070;15.126;2023-03-01T06:28:05;24.67;;;19.00;;
11927;SDS011;6023;47.070;15.126;2023-03-01T06:30:33;26.63;;;19.10;;
11927;SDS011;6023;47.070;15.126;2023-03-01T06:33:02;22.77;;;17.03;;
11927;SDS011;6023;47.070;15.126;2023-03-01T06:35:31;27.07;;;19.57;;
11927;SDS011;6023;47.070;15.126;2023-03-01T06:38:00;22.60;;;17.47;;
11927;SDS011;6023;47.070;15.126;2023-03-01T06:40:31;24.20;;;19.33;;
11927;SDS011;6023;47.070;15.126;2023-03-01T06:43:02;22.53;;;17.03;;
11927;SDS011;6023;47.070;15.126;2023-03-01T06:45:30;24.53;;;18.37;;
11927;SDS011;6023;47.070;15.126;2023-03-01T06:48:02;25.50;;;20.07;;
11927;SDS011;6023;47.070;15.126;2023-03-01T06:50:32;25.63;;;18.50;;
11927;SDS011;6023;47.070;15.126;2023-03-01T06:53:01;24.57;;;17.60;;
11927;SDS011;6023;47.070;15.126;2023-03-01T06:55:31;25.57;;;17.73;;
11927;SDS011;6023;47.070;15.126;2023-03-01T06:58:00;24.87;;;17.57;;
11927;SDS011;6023;47.070;15.126;2023-03-01T07:00:30;21.93;;;15.87;;
11927;SDS011;6023;47.070;15.126;2023-03-01T07:02:59;21.67;;;16.47;;
11927;SDS011;6023;47.070;15.126;2023-03-01T07:05:29;25.80;;;16.97;;
11927;SDS011;6023;47.070;15.126;2023-03-01T07:07:58;22.77;;;17.90;;
11927;SDS011;6023;47.070;15.126;2023-03-01T07:10:26;26.10;;;18.53;;
11927;SDS011;6023;47.070;15.126;2023-03-01T07:12:57;24.97;;;18.33;;
11927;SDS011;6023;47.070;15.126;2023-03-01T07:15:25;25.17;;;18.17;;
11927;SDS011;6023;47.070;15.126;2023-03-01T07:17:55;24.67;;;17.87;;
11927;SDS011;6023;47.070;15.126;2023-03-01T07:20:24;22.13;;;17.30;;
11927;SDS011;6023;47.070;15.126;2023-03-01T07:22:53;26.13;;;19.50;;
11927;SDS011;6023;47.070;15.126;2023-03-01T07:25:23;23.97;;;17.57;;
11927;SDS011;6023;47.070;15.126;2023-03-01T07:27:51;23.80;;;18.03;;
11927;SDS011;6023;47.070;15.126;2023-03-01T07:30:22;34.37;;;23.23;;
11927;SDS011;6023;47.070;15.126;2023-03-01T07:32:52;28.07;;;20.97;;
11927;SDS011;6023;47.070;15.126;2023-03-01T07:35:22;30.33;;;20.50;;
11927;SDS011;6023;47.070;15.126;2023-03-01T07:37:51;25.97;;;17.90;;
11927;SDS011;6023;47.070;15.126;2023-03-01T07:40:19;25.80;;;19.00;;
11927;SDS011;6023;47.070;15.126;2023-03-01T07:42:48;24.63;;;19.30;;
11927;SDS011;6023;47.070;15.126;2023-03-01T07:45:16;26.03;;;18.53;;
11927;SDS011;6023;47.070;15.126;2023-03-01T07:47:46;23.37;;;17.20;;
11927;SDS011;6023;47.070;15.126;2023-03-01T07:50:15;23.67;;;18.30;;
11927;SDS011;6023;47.070;15.126;2023-03-01T07:52:44;22.47;;;17.53;;
11927;SDS011;6023;47.070;15.126;2023-03-01T07:55:13;23.87;;;17.27;;
11927;SDS011;6023;47.070;15.126;2023-03-01T07:57:42;30.50;;;22.67;;
11927;SDS011;6023;47.070;15.126;2023-03-01T08:00:11;25.83;;;19.87;;
11927;SDS011;6023;47.070;15.126;2023-03-01T08:02:40;33.23;;;25.17;;
11927;SDS011;6023;47.070;15.126;2023-03-01T08:05:10;22.73;;;18.37;;
11927;SDS011;6023;47.070;15.126;2023-03-01T08:07:39;21.60;;;17.17;;
11927;SDS011;6023;47.070;15.126;2023-03-01T08:10:08;24.07;;;17.23;;
11927;SDS011;6023;47.070;15.126;2023-03-01T08:12:37;24.20;;;17.83;;
11927;SDS011;6023;47.070;15.126;2023-03-01T08:15:07;24.87;;;18.17;;
11927;SDS011;6023;47.070;15.126;2023-03-01T08:17:36;25.80;;;18.23;;
11927;SDS011;6023;47.070;15.126;2023-03-01T08:20:05;24.90;;;17.33;;
11927;SDS011;6023;47.070;15.126;2023-03-01T08:22:35;25.27;;;17.43;;
11927;SDS011;6023;47.070;15.126;2023-03-01T08:25:04;22.53;;;16.40;;
11927;SDS011;6023;47.070;15.126;2023-03-01T08:27:33;21.77;;;17.03;;
11927;SDS011;6023;47.070;15.126;2023-03-01T08:30:02;21.07;;;16.20;;
11927;SDS011;6023;47.070;15.126;2023-03-01T08:32:34;20.37;;;15.40;;
11927;SDS011;6023;47.070;15.126;2023-03-01T08:35:04;17.37;;;13.13;;
11927;SDS011;6023;47.070;15.126;2023-03-01T08:37:33;20.07;;;15.30;;
11927;SDS011;6023;47.070;15.126;2023-03-01T08:40:03;17.10;;;12.30;;
11927;SDS011;6023;47.070;15.126;2023-03-01T08:42:36;14.57;;;11.67;;
11927;SDS011;6023;47.070;15.126;2023-03-01T08:45:05;14.23;;;10.90;;
11927;SDS011;6023;47.070;15.126;2023-03-01T08:47:34;15.37;;;10.93;;
11927;SDS011;6023;47.070;15.126;2023-03-01T08:50:04;12.60;;;10.93;;
11927;SDS011;6023;47.070;15.126;2023-03-01T08:52:33;14.93;;;11.03;;
11927;SDS011;6023;47.070;15.126;2023-03-01T08:55:03;14.37;;;11.63;;
11927;SDS011;6023;47.070;15.126;2023-03-01T08:57:32;13.30;;;11.20;;
11927;SDS011;6023;47.070;15.126;2023-03-01T09:00:01;13.97;;;10.80;;
11927;SDS011;6023;47.070;15.126;2023-03-01T09:02:35;13.67;;;10.87;;
11927;SDS011;6023;47.070;15.126;2023-03-01T09:05:04;14.50;;;11.20;;
11927;SDS011;6023;47.070;15.126;2023-03-01T09:07:32;24.70;;;12.57;;
11927;SDS011;6023;47.070;15.126;2023-03-01T09:10:03;17.03;;;11.20;;
11927;SDS011;6023;47.070;15.126;2023-03-01T09:12:32;21.23;;;15.53;;
11927;SDS011;6023;47.070;15.126;2023-03-01T09:15:00;19.40;;;14.87;;
11927;SDS011;6023;47.070;15.126;2023-03-01T09:17:29;15.93;;;12.47;;
11927;SDS011;6023;47.070;15.126;2023-03-01T09:19:58;16.80;;;12.33;;
11927;SDS011;6023;47.070;15.126;2023-03-01T09:22:26;15.40;;;12.40;;
11927;SDS011;6023;47.070;15.126;2023-03-01T09:24:55;16.33;;;12.30;;
11927;SDS011;6023;47.070;15.126;2023-03-01T09:27:27;14.33;;;11.30;;
11927;SDS011;6023;47.070;15.126;2023-03-01T09:29:55;14.40;;;11.47;;
11927;SDS011;6023;47.070;15.126;2023-03-01T09:32:24;13.73;;;10.87;;
11927;SDS011;6023;47.070;15.126;2023-03-01T09:34:53;13.70;;;10.60;;
11927;SDS011;6023;47.070;15.126;2023-03-01T09:37:32;14.47;;;11.50;;
11927;SDS011;6023;47.070;15.126;2023-03-01T09:40:01;13.37;;;11.03;;
11927;SDS011;6023;47.070;15.126;2023-03-01T09:42:32;18.07;;;11.53;;
11927;SDS011;6023;47.070;15.126;2023-03-01T09:45:03;11.93;;;10.50;;
11927;SDS011;6023;47.070;15.126;2023-03-01T09:47:34;14.40;;;11.77;;
11927;SDS011;6023;47.070;15.126;2023-03-01T09:50:04;13.97;;;11.03;;
11927;SDS011;6023;47.070;15.126;2023-03-01T09:52:36;15.43;;;11.80;;
11927;SDS011;6023;47.070;15.126;2023-03-01T09:55:11;13.03;;;11.37;;
11927;SDS011;6023;47.070;15.126;2023-03-01T09:57:45;17.00;;;11.90;;
11927;SDS011;6023;47.070;15.126;2023-03-01T10:00:18;13.10;;;11.07;;
11927;SDS011;6023;47.070;15.126;2023-03-01T10:02:56;13.50;;;11.37;;
11927;SDS011;6023;47.070;15.126;2023-03-01T10:05:31;15.80;;;12.90;;
11927;SDS011;6023;47.070;15.126;2023-03-01T10:08:14;13.93;;;11.83;;
11927;SDS011;6023;47.070;15.126;2023-03-01T10:10:52;17.20;;;12.53;;
11927;SDS011;6023;47.070;15.126;2023-03-01T10:13:24;17.40;;;13.30;;
11927;SDS011;6023;47.070;15.126;2023-03-01T10:15:56;16.47;;;13.10;;
11927;SDS011;6023;47.070;15.126;2023-03-01T10:18:27;17.20;;;13.33;;
11927;SDS011;6023;47.070;15.126;2023-03-01T10:20:58;18.40;;;13.47;;
11927;SDS011;6023;47.070;15.126;2023-03-01T10:23:29;17.87;;;13.57;;
11927;SDS011;6023;47.070;15.126;2023-03-01T10:26:12;17.10;;;13.03;;
11927;SDS011;6023;47.070;15.126;2023-03-01T10:28:54;17.50;;;13.07;;
11927;SDS011;6023;47.070;15.126;2023-03-01T10:31:32;18.53;;;13.50;;
11927;SDS011;6023;47.070;15.126;2023-03-01T10:34:07;16.17;;;12.33;;
11927;SDS011;6023;47.070;15.126;2023-03-01T10:36:38;17.37;;;14.13;;
11927;SDS011;6023;47.070;15.126;2023-03-01T10:39:12;19.00;;;14.83;;
11927;SDS011;6023;47.070;15.126;2023-03-01T10:41:52;17.43;;;14.63;;
11927;SDS011;6023;47.070;15.126;2023-03-01T10:44:39;17.77;;;13.70;;
11927;SDS011;6023;47.070;15.126;2023-03-01T10:47:14;17.93;;;12.70;;
11927;SDS011;6023;47.070;15.126;2023-03-01T10:49:55;18.30;;;14.27;;
11927;SDS011;6023;47.070;15.126;2023-03-01T10:52:27;16.33;;;13.20;;
11927;SDS011;6023;47.070;15.126;2023-03-01T10:55:01;16.73;;;13.27;;
11927;SDS011;6023;47.070;15.126;2023-03-01T10:57:37;16.27;;;12.57;;
11927;SDS011;6023;47.070;15.126;2023-03-01T11:00:24;17.13;;;13.50;;
11927;SDS011;6023;47.070;15.126;2023-03-01T11:03:03;15.80;;;12.53;;
11927;SDS011;6023;47.070;15.126;2023-03-01T11:05:50;17.13;;;13.07;;
11927;SDS011;6023;47.070;15.126;2023-03-01T11:08:29;15.87;;;13.13;;
11927;SDS011;6023;47.070;15.126;2023-03-01T11:11:07;15.60;;;12.60;;
11927;SDS011;6023;47.070;15.126;2023-03-01T11:13:53;16.10;;;12.93;;
11927;SDS011;6023;47.070;15.126;2023-03-01T11:16:28;16.33;;;12.70;;
11927;SDS011;6023;47.070;15.126;2023-03-01T11:19:01;17.33;;;12.83;;
11927;SDS011;6023;47.070;15.126;2023-03-01T11:21:46;15.93;;;12.97;;
11927;SDS011;6023;47.070;15.126;2023-03-01T11:24:22;16.40;;;13.63;;
11927;SDS011;6023;47.070;15.126;2023-03-01T11:26:55;15.13;;;12.30;;
11927;SDS011;6023;47.070;15.126;2023-03-01T11:29:26;17.37;;;13.37;;
11927;SDS011;6023;47.070;15.126;2023-03-01T11:32:08;18.30;;;14.40;;
11927;SDS011;6023;47.070;15.126;2023-03-01T11:34:39;17.90;;;13.60;;
11927;SDS011;6023;47.070;15.126;2023-03-01T11:37:13;17.23;;;13.20;;
11927;SDS011;6023;47.070;15.126;2023-03-01T11:39:53;16.03;;;12.50;;
11927;SDS011;6023;47.070;15.126;2023-03-01T11:42:27;18.67;;;13.33;;
11927;SDS011;6023;47.070;15.126;2023-03-01T11:45:02;17.97;;;13.57;;
11927;SDS011;6023;47.070;15.126;2023-03-01T11:47:45;17.30;;;13.53;;
11927;SDS011;6023;47.070;15.126;2023-03-01T11:50:23;17.40;;;13.43;;
11927;SDS011;6023;47.070;15.126;2023-03-01T11:53:02;18.80;;;14.63;;
11927;SDS011;6023;47.070;15.126;2023-03-01T11:55:51;18.00;;;14.53;;
11927;SDS011;6023;47.070;15.126;2023-03-01T11:58:29;19.97;;;14.00;;
11927;SDS011;6023;47.070;15.126;2023-03-01T12:01:15;18.47;;;14.30;;
11927;SDS011;6023;47.070;15.126;2023-03-01T12:03:58;18.83;;;14.03;;
11927;SDS011;6023;47.070;15.126;2023-03-01T12:06:46;21.77;;;14.90;;
11927;SDS011;6023;47.070;15.126;2023-03-01T12:09:30;25.17;;;18.77;;
11927;SDS011;6023;47.070;15.126;2023-03-01T12:12:11;21.27;;;15.03;;
11927;SDS011;6023;47.070;15.126;2023-03-01T12:18:22;15.63;;;13.00;;
11927;SDS011;6023;47.070;15.126;2023-03-01T12:21:17;16.50;;;13.30;;
11927;SDS011;6023;47.070;15.126;2023-03-01T12:23:55;17.90;;;12.67;;
11927;SDS011;6023;47.070;15.126;2023-03-01T12:26:39;17.63;;;13.37;;
11927;SDS011;6023;47.070;15.126;2023-03-01T12:29:22;18.90;;;14.00;;
11927;SDS011;6023;47.070;15.126;2023-03-01T12:32:01;16.97;;;13.50;;
11927;SDS011;6023;47.070;15.126;2023-03-01T12:34:43;18.33;;;13.20;;
11927;SDS011;6023;47.070;15.126;2023-03-01T12:37:42;18.90;;;13.70;;
11927;SDS011;6023;47.070;15.126;2023-03-01T12:43:22;15.80;;;13.03;;
11927;SDS011;6023;47.070;15.126;2023-03-01T12:46:02;17.03;;;13.33;;
11927;SDS011;6023;47.070;15.126;2023-03-01T12:48:43;20.77;;;15.17;;
11927;SDS011;6023;47.070;15.126;2023-03-01T12:51:17;22.30;;;16.53;;
11927;SDS011;6023;47.070;15.126;2023-03-01T12:53:50;19.70;;;14.93;;
11927;SDS011;6023;47.070;15.126;2023-03-01T12:56:21;19.90;;;14.03;;
11927;SDS011;6023;47.070;15.126;2023-03-01T12:58:53;18.43;;;13.90;;
11927;SDS011;6023;47.070;15.126;2023-03-01T13:01:38;18.83;;;13.80;;
11927;SDS011;6023;47.070;15.126;2023-03-01T13:04:15;19.50;;;13.17;;
11927;SDS011;6023;47.070;15.126;2023-03-01T13:06:54;17.47;;;13.27;;
11927;SDS011;6023;47.070;15.126;2023-03-01T13:09:31;19.33;;;13.57;;
11927;SDS011;6023;47.070;15.126;2023-03-01T13:15:13;17.47;;;13.50;;
11927;SDS011;6023;47.070;15.126;2023-03-01T13:17:54;17.60;;;13.10;;
11927;SDS011;6023;47.070;15.126;2023-03-01T13:20:25;16.90;;;12.30;;
11927;SDS011;6023;47.070;15.126;2023-03-01T13:23:02;16.23;;;12.57;;
11927;SDS011;6023;47.070;15.126;2023-03-01T13:25:34;18.53;;;14.10;;
11927;SDS011;6023;47.070;15.126;2023-03-01T13:37:21;16.50;;;12.50;;
11927;SDS011;6023;47.070;15.126;2023-03-01T13:39:56;19.37;;;13.73;;
11927;SDS011;6023;47.070;15.126;2023-03-01T13:42:39;17.70;;;13.13;;
11927;SDS011;6023;47.070;15.126;2023-03-01T13:45:20;16.43;;;11.93;;
11927;SDS011;6023;47.070;15.126;2023-03-01T13:47:53;16.23;;;12.60;;
11927;SDS011;6023;47.070;15.126;2023-03-01T13:50:25;16.77;;;12.40;;
11927;SDS011;6023;47.070;15.126;2023-03-01T13:52:56;16.27;;;12.00;;
11927;SDS011;6023;47.070;15.126;2023-03-01T13:55:29;19.33;;;12.77;;
11927;SDS011;6023;47.070;15.126;2023-03-01T13:58:14;15.60;;;12.10;;
11927;SDS011;6023;47.070;15.126;2023-03-01T14:00:44;17.77;;;13.33;;
11927;SDS011;6023;47.070;15.126;2023-03-01T14:03:13;14.83;;;11.67;;
11927;SDS011;6023;47.070;15.126;2023-03-01T14:05:44;13.90;;;10.97;;
11927;SDS011;6023;47.070;15.126;2023-03-01T14:08:39;16.27;;;10.80;;
11927;SDS011;6023;47.070;15.126;2023-03-01T14:14:04;12.67;;;10.07;;
11927;SDS011;6023;47.070;15.126;2023-03-01T14:16:55;14.83;;;10.73;;
11927;SDS011;6023;47.070;15.126;2023-03-01T14:19:30;14.10;;;10.23;;
11927;SDS011;6023;47.070;15.126;2023-03-01T14:22:02;17.53;;;11.73;;
11927;SDS011;6023;47.070;15.126;2023-03-01T14:24:35;16.33;;;11.30;;
11927;SDS011;6023;47.070;15.126;2023-03-01T14:27:09;16.13;;;11.43;;
11927;SDS011;6023;47.070;15.126;2023-03-01T14:29:41;14.67;;;10.53;;
11927;SDS011;6023;47.070;15.126;2023-03-01T14:32:11;17.10;;;13.53;;
11927;SDS011;6023;47.070;15.126;2023-03-01T14:34:44;15.30;;;10.37;;
11927;SDS011;6023;47.070;15.126;2023-03-01T14:37:18;12.83;;;9.23;;
11927;SDS011;6023;47.070;15.126;2023-03-01T14:39:48;13.37;;;9.17;;
11927;SDS011;6023;47.070;15.126;2023-03-01T14:42:17;11.23;;;8.77;;
11927;SDS011;6023;47.070;15.126;2023-03-01T14:44:48;11.60;;;8.97;;
11927;SDS011;6023;47.070;15.126;2023-03-01T14:47:21;13.87;;;9.17;;
11927;SDS011;6023;47.070;15.126;2023-03-01T14:49:56;15.33;;;10.00;;
11927;SDS011;6023;47.070;15.126;2023-03-01T14:52:29;12.93;;;9.63;;
11927;SDS011;6023;47.070;15.126;2023-03-01T14:55:04;13.57;;;10.00;;
11927;SDS011;6023;47.070;15.126;2023-03-01T14:57:34;15.00;;;10.43;;
11927;SDS011;6023;47.070;15.126;2023-03-01T15:00:05;14.40;;;9.90;;
11927;SDS011;6023;47.070;15.126;2023-03-01T15:02:35;12.03;;;8.53;;
11927;SDS011;6023;47.070;15.126;2023-03-01T15:05:06;11.63;;;8.27;;
11927;SDS011;6023;47.070;15.126;2023-03-01T15:07:37;13.17;;;9.53;;
11927;SDS011;6023;47.070;15.126;2023-03-01T15:10:17;15.13;;;10.50;;
11927;SDS011;6023;47.070;15.126;2023-03-01T15:12:48;12.73;;;9.47;;
11927;SDS011;6023;47.070;15.126;2023-03-01T15:15:21;15.67;;;10.07;;